Galaxy Leader — C6S02 — position and weather

sailwx.info

Track history (hours):
 
Tides and Currents Weather Stations Pressure Air Temp Water Temp Dewpoint Dewpoint Depression Visibility Wind Speed Wind Dir Waves Ship Positions

Galaxy Leader

Last reported at 2017-Sep-17 14:30 UTC. Time now 2017-Sep-21 17:50 UTC.
Position S 25°16' W 046°48'.

Length 189 m; draft 8.1 m.

Type: Cargo ship. MMSI: 311408000.

Date/timePositionNaut miles runAvg speedWind from/ knotsBaromVisibWave heightAir tempDewpointWater temp
2017-Sep-17 14:30S 25°16' W 046°48'1017.1
2017-Sep-17 13:56S 25°13' W 046°37'3216.2
2017-Sep-17 11:56S 24°42' W 046°29'716.9
2017-Sep-17 11:30S 24°35' W 046°28'816.9
2017-Sep-17 11:00S 24°26' W 046°26'817.0
2017-Sep-17 10:30S 24°18' W 046°25'817.0
2017-Sep-17 10:00S 24°10' W 046°23'816.2
2017-Sep-17 09:30S 24°02' W 046°21'4 8.1
2017-Sep-17 09:00S 23°59' W 046°18'2 3.6
2017-Sep-17 08:30S 23°58' W 046°18'0 0.0
2017-Sep-17 07:55S 23°58' W 046°18'0 0.0
2017-Sep-17 07:28S 23°58' W 046°18'0 0.0
2017-Sep-17 06:55S 23°58' W 046°18'0 0.0
2017-Sep-17 06:25S 23°58' W 046°18'0 0.0
2017-Sep-17 06:01S 23°58' W 046°18'0 0.0
2017-Sep-17 05:31S 23°58' W 046°18'0 0.0
2017-Sep-17 05:01S 23°58' W 046°18'0 0.0
2017-Sep-17 04:30S 23°58' W 046°18'0 0.0
2017-Sep-17 04:00S 23°58' W 046°18'0 0.0
2017-Sep-17 03:30S 23°58' W 046°18'0 0.0
2017-Sep-17 03:00S 23°58' W 046°18'0 0.0
2017-Sep-17 02:30S 23°58' W 046°18'0 0.0
2017-Sep-17 01:42S 23°58' W 046°18'0 0.0
2017-Sep-17 01:27S 23°58' W 046°18'0 0.0
2017-Sep-17 01:00S 23°58' W 046°18'0 0.0
2017-Sep-17 00:30S 23°58' W 046°18'0 0.0
2017-Sep-16 23:54S 23°58' W 046°18'0 0.0
2017-Sep-16 23:30S 23°58' W 046°18'0 0.0
2017-Sep-16 23:00S 23°58' W 046°18'0 0.0
2017-Sep-16 22:30S 23°58' W 046°18'0 0.0
2017-Sep-16 21:54S 23°58' W 046°18'0 0.0
2017-Sep-16 21:27S 23°58' W 046°18'1 3.2
2017-Sep-16 21:00S 23°59' W 046°17'4 7.9
2017-Sep-16 20:30S 24°01' W 046°21'4 7.0
2017-Sep-16 20:00S 24°05' W 046°22'4 7.1
2017-Sep-16 19:30S 24°08' W 046°23'3 6.7
2017-Sep-16 19:00S 24°11' W 046°24'1 1.1
2017-Sep-16 18:30S 24°12' W 046°23'0 0.3
2017-Sep-16 18:00S 24°12' W 046°24'3 5.5
2017-Sep-16 17:30S 24°09' W 046°24'3 5.0
2017-Sep-16 17:00S 24°07' W 046°24'1 1.5
2017-Sep-16 16:30S 24°07' W 046°24'1 1.6
2017-Sep-16 16:00S 24°08' W 046°24'1 1.4
2017-Sep-16 15:30S 24°09' W 046°24'1 1.1
2017-Sep-16 15:00S 24°09' W 046°24'1 1.2
2017-Sep-16 14:30S 24°10' W 046°24'1 1.3
2017-Sep-16 14:00S 24°11' W 046°24'1 1.3
2017-Sep-16 13:30S 24°11' W 046°25'1 1.5
2017-Sep-16 13:00S 24°12' W 046°25'1 1.2
2017-Sep-16 12:30S 24°13' W 046°25'0 0.6
2017-Sep-16 12:00S 24°13' W 046°25'2 4.0
2017-Sep-16 11:30S 24°11' W 046°25'3 6.6
2017-Sep-16 11:00S 24°08' W 046°25'0 0.9
2017-Sep-16 10:30S 24°08' W 046°25'1 1.0
2017-Sep-16 10:00S 24°08' W 046°25'1 1.1
2017-Sep-16 09:30S 24°09' W 046°25'1 1.1
2017-Sep-16 09:00S 24°09' W 046°25'1 1.1
2017-Sep-16 08:30S 24°10' W 046°26'1 1.2
2017-Sep-16 08:00S 24°11' W 046°26'1 1.5
2017-Sep-16 07:31S 24°11' W 046°26'1 1.7
2017-Sep-16 07:00S 24°12' W 046°26'1 1.7
2017-Sep-16 06:30S 24°13' W 046°26'1 1.8
2017-Sep-16 06:00S 24°14' W 046°26'1 1.9
2017-Sep-16 05:30S 24°15' W 046°26'1 1.5
2017-Sep-16 05:00S 24°16' W 046°27'1 1.2
2017-Sep-16 04:30S 24°15' W 046°27'4 7.1
2017-Sep-16 04:00S 24°13' W 046°25'4 8.4
2017-Sep-16 03:30S 24°10' W 046°22'0 0.5
2017-Sep-16 03:00S 24°09' W 046°22'1 2.1
2017-Sep-16 02:30S 24°10' W 046°23'1 2.2
2017-Sep-16 02:00S 24°11' W 046°23'1 2.0
2017-Sep-16 01:30S 24°12' W 046°24'1 1.4
2017-Sep-16 01:00S 24°12' W 046°25'3 6.1
2017-Sep-16 00:30S 24°09' W 046°23'1 2.7
2017-Sep-16 00:01S 24°08' W 046°23'1 2.0
2017-Sep-15 23:31S 24°09' W 046°23'1 1.9
2017-Sep-15 23:00S 24°10' W 046°23'1 1.8
2017-Sep-15 22:30S 24°11' W 046°23'1 1.1
2017-Sep-15 22:00S 24°12' W 046°24'1 1.0
2017-Sep-15 21:30S 24°12' W 046°23'5 9.2
2017-Sep-15 21:00S 24°07' W 046°24'0 0.9
2017-Sep-15 20:30S 24°08' W 046°24'0 0.9
2017-Sep-15 20:00S 24°08' W 046°24'1 1.1
2017-Sep-15 19:30S 24°09' W 046°24'1 1.5
2017-Sep-15 19:00S 24°09' W 046°24'1 1.5
2017-Sep-15 18:30S 24°10' W 046°24'1 1.3
2017-Sep-15 18:00S 24°11' W 046°23'1 1.3
2017-Sep-15 17:30S 24°11' W 046°23'0 0.9
2017-Sep-15 17:00S 24°12' W 046°23'2 3.7
2017-Sep-15 16:30S 24°10' W 046°24'3 6.5
2017-Sep-15 16:00S 24°08' W 046°26'1 1.5
2017-Sep-15 15:30S 24°09' W 046°26'1 1.6
2017-Sep-15 15:00S 24°09' W 046°26'1 1.9
2017-Sep-15 14:30S 24°10' W 046°26'1 1.6
2017-Sep-15 14:00S 24°11' W 046°26'0 0.8
2017-Sep-15 13:30S 24°11' W 046°26'1 2.9
2017-Sep-15 13:00S 24°10' W 046°26'2 4.7
2017-Sep-15 12:30S 24°08' W 046°26'1 1.7
2017-Sep-15 12:00S 24°08' W 046°26'1 1.7
2017-Sep-15 11:31S 24°09' W 046°26'1 1.3
2017-Sep-15 11:00S 24°10' W 046°26'1 1.1
2017-Sep-15 10:30S 24°10' W 046°26'0 0.9
2017-Sep-15 10:00S 24°11' W 046°25'0 0.7
2017-Sep-15 09:30S 24°11' W 046°25'1 2.5
2017-Sep-15 09:00S 24°10' W 046°24'0 0.8
2017-Sep-15 08:30S 24°10' W 046°23'0 0.4
2017-Sep-15 08:00S 24°11' W 046°23'0 0.5
2017-Sep-15 07:30S 24°11' W 046°23'0 0.5
2017-Sep-15 07:00S 24°10' W 046°23'0 0.3
2017-Sep-15 06:30S 24°10' W 046°23'0 0.4
2017-Sep-15 06:00S 24°11' W 046°22'0 0.4
2017-Sep-15 05:30S 24°11' W 046°22'1 1.1
2017-Sep-15 05:00S 24°10' W 046°23'4 8.1
2017-Sep-15 04:30S 24°08' W 046°26'0 0.9
2017-Sep-15 04:00S 24°07' W 046°26'0 0.9
2017-Sep-15 03:30S 24°07' W 046°26'0 0.9
2017-Sep-15 03:00S 24°08' W 046°25'1 1.0
2017-Sep-15 02:30S 24°08' W 046°25'1 1.2
2017-Sep-15 02:00S 24°09' W 046°25'1 1.2
2017-Sep-15 01:30S 24°09' W 046°24'1 1.2
2017-Sep-15 01:00S 24°10' W 046°24'1 1.1
2017-Sep-15 00:30S 24°10' W 046°24'1 1.0
2017-Sep-15 00:00S 24°10' W 046°23'0 1.0
2017-Sep-14 23:30S 24°11' W 046°23'0 0.3
2017-Sep-14 23:00S 24°11' W 046°23'4 7.7
2017-Sep-14 22:30S 24°08' W 046°25'2 3.0
2017-Sep-14 22:00S 24°07' W 046°27'0 0.9
2017-Sep-14 21:30S 24°07' W 046°26'0 0.8
2017-Sep-14 21:00S 24°07' W 046°26'0 0.8
2017-Sep-14 20:30S 24°08' W 046°26'0 0.8
2017-Sep-14 20:00S 24°08' W 046°25'0 0.8
2017-Sep-14 19:30S 24°08' W 046°25'0 0.8
2017-Sep-14 19:00S 24°08' W 046°25'1 1.8
2017-Sep-14 18:30S 24°09' W 046°25'511.1
2017-Sep-14 18:00S 24°15' W 046°24'816.6
2017-Sep-14 17:30S 24°23' W 046°21'917.7
2017-Sep-14 17:00S 24°24' W 046°12'918.3
2017-Sep-14 16:30S 24°24' W 046°02'1019.2
2017-Sep-14 16:00S 24°23' W 045°51'1019.2
2017-Sep-14 15:30S 24°22' W 045°41'918.6
2017-Sep-14 15:00S 24°20' W 045°31'918.5
2017-Sep-14 14:30S 24°17' W 045°21'918.4
2017-Sep-14 14:00S 24°14' W 045°12'918.6
2017-Sep-14 13:30S 24°11' W 045°02'1020.0
2017-Sep-14 13:00S 24°07' W 044°52'1020.4
2017-Sep-14 12:30S 24°04' W 044°42'1020.1
2017-Sep-14 12:00S 24°00' W 044°31'1019.8
2017-Sep-14 11:30S 23°56' W 044°21'918.7
2017-Sep-14 11:00S 23°54' W 044°11'918.5
2017-Sep-14 10:30S 23°51' W 044°02'  
Track history (hours):
 
Tides and Currents Weather Stations Pressure Air Temp Water Temp Dewpoint Dewpoint Depression Visibility Wind Speed Wind Dir Waves Ship Positions

Galaxy Leader

Last reported at 2017-Sep-17 14:30 UTC. Time now 2017-Sep-21 17:50 UTC.
Position S 25°16' W 046°48'.

Length 189 m; draft 8.1 m.

Type: Cargo ship. MMSI: 311408000.

Date/timePositionNaut miles runAvg speedWind from/ knotsBaromVisibWave heightAir tempDewpointWater temp
2017-Sep-17 14:30S 25°16' W 046°48'1017.1
2017-Sep-17 13:56S 25°13' W 046°37'3216.2
2017-Sep-17 11:56S 24°42' W 046°29'716.9
2017-Sep-17 11:30S 24°35' W 046°28'816.9
2017-Sep-17 11:00S 24°26' W 046°26'817.0
2017-Sep-17 10:30S 24°18' W 046°25'817.0
2017-Sep-17 10:00S 24°10' W 046°23'816.2
2017-Sep-17 09:30S 24°02' W 046°21'4 8.1
2017-Sep-17 09:00S 23°59' W 046°18'2 3.6
2017-Sep-17 08:30S 23°58' W 046°18'0 0.0
2017-Sep-17 07:55S 23°58' W 046°18'0 0.0
2017-Sep-17 07:28S 23°58' W 046°18'0 0.0
2017-Sep-17 06:55S 23°58' W 046°18'0 0.0
2017-Sep-17 06:25S 23°58' W 046°18'0 0.0
2017-Sep-17 06:01S 23°58' W 046°18'0 0.0
2017-Sep-17 05:31S 23°58' W 046°18'0 0.0
2017-Sep-17 05:01S 23°58' W 046°18'0 0.0
2017-Sep-17 04:30S 23°58' W 046°18'0 0.0
2017-Sep-17 04:00S 23°58' W 046°18'0 0.0
2017-Sep-17 03:30S 23°58' W 046°18'0 0.0
2017-Sep-17 03:00S 23°58' W 046°18'0 0.0
2017-Sep-17 02:30S 23°58' W 046°18'0 0.0
2017-Sep-17 01:42S 23°58' W 046°18'0 0.0
2017-Sep-17 01:27S 23°58' W 046°18'0 0.0
2017-Sep-17 01:00S 23°58' W 046°18'0 0.0
2017-Sep-17 00:30S 23°58' W 046°18'0 0.0
2017-Sep-16 23:54S 23°58' W 046°18'0 0.0
2017-Sep-16 23:30S 23°58' W 046°18'0 0.0
2017-Sep-16 23:00S 23°58' W 046°18'0 0.0
2017-Sep-16 22:30S 23°58' W 046°18'0 0.0
2017-Sep-16 21:54S 23°58' W 046°18'0 0.0
2017-Sep-16 21:27S 23°58' W 046°18'1 3.2
2017-Sep-16 21:00S 23°59' W 046°17'4 7.9
2017-Sep-16 20:30S 24°01' W 046°21'4 7.0
2017-Sep-16 20:00S 24°05' W 046°22'4 7.1
2017-Sep-16 19:30S 24°08' W 046°23'3 6.7
2017-Sep-16 19:00S 24°11' W 046°24'1 1.1
2017-Sep-16 18:30S 24°12' W 046°23'0 0.3
2017-Sep-16 18:00S 24°12' W 046°24'3 5.5
2017-Sep-16 17:30S 24°09' W 046°24'3 5.0
2017-Sep-16 17:00S 24°07' W 046°24'1 1.5
2017-Sep-16 16:30S 24°07' W 046°24'1 1.6
2017-Sep-16 16:00S 24°08' W 046°24'1 1.4
2017-Sep-16 15:30S 24°09' W 046°24'1 1.1
2017-Sep-16 15:00S 24°09' W 046°24'1 1.2
2017-Sep-16 14:30S 24°10' W 046°24'1 1.3
2017-Sep-16 14:00S 24°11' W 046°24'1 1.3
2017-Sep-16 13:30S 24°11' W 046°25'1 1.5
2017-Sep-16 13:00S 24°12' W 046°25'1 1.2
2017-Sep-16 12:30S 24°13' W 046°25'0 0.6
2017-Sep-16 12:00S 24°13' W 046°25'2 4.0
2017-Sep-16 11:30S 24°11' W 046°25'3 6.6
2017-Sep-16 11:00S 24°08' W 046°25'0 0.9
2017-Sep-16 10:30S 24°08' W 046°25'1 1.0
2017-Sep-16 10:00S 24°08' W 046°25'1 1.1
2017-Sep-16 09:30S 24°09' W 046°25'1 1.1
2017-Sep-16 09:00S 24°09' W 046°25'1 1.1
2017-Sep-16 08:30S 24°10' W 046°26'1 1.2
2017-Sep-16 08:00S 24°11' W 046°26'1 1.5
2017-Sep-16 07:31S 24°11' W 046°26'1 1.7
2017-Sep-16 07:00S 24°12' W 046°26'1 1.7
2017-Sep-16 06:30S 24°13' W 046°26'1 1.8
2017-Sep-16 06:00S 24°14' W 046°26'1 1.9
2017-Sep-16 05:30S 24°15' W 046°26'1 1.5
2017-Sep-16 05:00S 24°16' W 046°27'1 1.2
2017-Sep-16 04:30S 24°15' W 046°27'4 7.1
2017-Sep-16 04:00S 24°13' W 046°25'4 8.4
2017-Sep-16 03:30S 24°10' W 046°22'0 0.5
2017-Sep-16 03:00S 24°09' W 046°22'1 2.1
2017-Sep-16 02:30S 24°10' W 046°23'1 2.2
2017-Sep-16 02:00S 24°11' W 046°23'1 2.0
2017-Sep-16 01:30S 24°12' W 046°24'1 1.4
2017-Sep-16 01:00S 24°12' W 046°25'3 6.1
2017-Sep-16 00:30S 24°09' W 046°23'1 2.7
2017-Sep-16 00:01S 24°08' W 046°23'1 2.0
2017-Sep-15 23:31S 24°09' W 046°23'1 1.9
2017-Sep-15 23:00S 24°10' W 046°23'1 1.8
2017-Sep-15 22:30S 24°11' W 046°23'1 1.1
2017-Sep-15 22:00S 24°12' W 046°24'1 1.0
2017-Sep-15 21:30S 24°12' W 046°23'5 9.2
2017-Sep-15 21:00S 24°07' W 046°24'0 0.9
2017-Sep-15 20:30S 24°08' W 046°24'0 0.9
2017-Sep-15 20:00S 24°08' W 046°24'1 1.1
2017-Sep-15 19:30S 24°09' W 046°24'1 1.5
2017-Sep-15 19:00S 24°09' W 046°24'1 1.5
2017-Sep-15 18:30S 24°10' W 046°24'1 1.3
2017-Sep-15 18:00S 24°11' W 046°23'1 1.3
2017-Sep-15 17:30S 24°11' W 046°23'0 0.9
2017-Sep-15 17:00S 24°12' W 046°23'2 3.7
2017-Sep-15 16:30S 24°10' W 046°24'3 6.5
2017-Sep-15 16:00S 24°08' W 046°26'1 1.5
2017-Sep-15 15:30S 24°09' W 046°26'1 1.6
2017-Sep-15 15:00S 24°09' W 046°26'1 1.9
2017-Sep-15 14:30S 24°10' W 046°26'1 1.6
2017-Sep-15 14:00S 24°11' W 046°26'0 0.8
2017-Sep-15 13:30S 24°11' W 046°26'1 2.9
2017-Sep-15 13:00S 24°10' W 046°26'2 4.7
2017-Sep-15 12:30S 24°08' W 046°26'1 1.7
2017-Sep-15 12:00S 24°08' W 046°26'1 1.7
2017-Sep-15 11:31S 24°09' W 046°26'1 1.3
2017-Sep-15 11:00S 24°10' W 046°26'1 1.1
2017-Sep-15 10:30S 24°10' W 046°26'0 0.9
2017-Sep-15 10:00S 24°11' W 046°25'0 0.7
2017-Sep-15 09:30S 24°11' W 046°25'1 2.5
2017-Sep-15 09:00S 24°10' W 046°24'0 0.8
2017-Sep-15 08:30S 24°10' W 046°23'0 0.4
2017-Sep-15 08:00S 24°11' W 046°23'0 0.5
2017-Sep-15 07:30S 24°11' W 046°23'0 0.5
2017-Sep-15 07:00S 24°10' W 046°23'0 0.3
2017-Sep-15 06:30S 24°10' W 046°23'0 0.4
2017-Sep-15 06:00S 24°11' W 046°22'0 0.4
2017-Sep-15 05:30S 24°11' W 046°22'1 1.1
2017-Sep-15 05:00S 24°10' W 046°23'4 8.1
2017-Sep-15 04:30S 24°08' W 046°26'0 0.9
2017-Sep-15 04:00S 24°07' W 046°26'0 0.9
2017-Sep-15 03:30S 24°07' W 046°26'0 0.9
2017-Sep-15 03:00S 24°08' W 046°25'1 1.0
2017-Sep-15 02:30S 24°08' W 046°25'1 1.2
2017-Sep-15 02:00S 24°09' W 046°25'1 1.2
2017-Sep-15 01:30S 24°09' W 046°24'1 1.2
2017-Sep-15 01:00S 24°10' W 046°24'1 1.1
2017-Sep-15 00:30S 24°10' W 046°24'1 1.0
2017-Sep-15 00:00S 24°10' W 046°23'0 1.0
2017-Sep-14 23:30S 24°11' W 046°23'0 0.3
2017-Sep-14 23:00S 24°11' W 046°23'4 7.7
2017-Sep-14 22:30S 24°08' W 046°25'2 3.0
2017-Sep-14 22:00S 24°07' W 046°27'0 0.9
2017-Sep-14 21:30S 24°07' W 046°26'0 0.8
2017-Sep-14 21:00S 24°07' W 046°26'0 0.8
2017-Sep-14 20:30S 24°08' W 046°26'0 0.8
2017-Sep-14 20:00S 24°08' W 046°25'0 0.8
2017-Sep-14 19:30S 24°08' W 046°25'0 0.8
2017-Sep-14 19:00S 24°08' W 046°25'1 1.8
2017-Sep-14 18:30S 24°09' W 046°25'511.1
2017-Sep-14 18:00S 24°15' W 046°24'816.6
2017-Sep-14 17:30S 24°23' W 046°21'917.7
2017-Sep-14 17:00S 24°24' W 046°12'918.3
2017-Sep-14 16:30S 24°24' W 046°02'1019.2
2017-Sep-14 16:00S 24°23' W 045°51'1019.2
2017-Sep-14 15:30S 24°22' W 045°41'918.6
2017-Sep-14 15:00S 24°20' W 045°31'918.5
2017-Sep-14 14:30S 24°17' W 045°21'918.4
2017-Sep-14 14:00S 24°14' W 045°12'918.6
2017-Sep-14 13:30S 24°11' W 045°02'1020.0
2017-Sep-14 13:00S 24°07' W 044°52'1020.4
2017-Sep-14 12:30S 24°04' W 044°42'1020.1
2017-Sep-14 12:00S 24°00' W 044°31'1019.8
2017-Sep-14 11:30S 23°56' W 044°21'918.7
2017-Sep-14 11:00S 23°54' W 044°11'918.5
2017-Sep-14 10:30S 23°51' W 044°02'  

Dump ship's entire track history